sensor_id;sensor_type;location;lat;lon;timestamp;pressure;altitude;pressure_sealevel;temperature
22322;BMP180;11328;53.928;18.522;2022-10-16T00:01:40;100069.00;;;17.20
22322;BMP180;11328;53.928;18.522;2022-10-16T00:04:08;100066.00;;;17.20
22322;BMP180;11328;53.928;18.522;2022-10-16T00:06:35;100062.00;;;17.20
22322;BMP180;11328;53.928;18.522;2022-10-16T00:09:03;100080.00;;;17.10
22322;BMP180;11328;53.928;18.522;2022-10-16T00:11:35;100080.00;;;17.20
22322;BMP180;11328;53.928;18.522;2022-10-16T00:14:11;100067.00;;;17.20
22322;BMP180;11328;53.928;18.522;2022-10-16T00:16:38;100067.00;;;17.20
22322;BMP180;11328;53.928;18.522;2022-10-16T00:19:05;100074.00;;;17.20
22322;BMP180;11328;53.928;18.522;2022-10-16T00:21:33;100076.00;;;17.30
22322;BMP180;11328;53.928;18.522;2022-10-16T00:24:06;100075.00;;;17.30
22322;BMP180;11328;53.928;18.522;2022-10-16T00:26:36;100082.00;;;17.30
22322;BMP180;11328;53.928;18.522;2022-10-16T00:29:04;100074.00;;;17.40
22322;BMP180;11328;53.928;18.522;2022-10-16T00:31:33;100090.00;;;17.50
22322;BMP180;11328;53.928;18.522;2022-10-16T00:34:00;100080.00;;;17.40
22322;BMP180;11328;53.928;18.522;2022-10-16T00:36:27;100065.00;;;17.40
22322;BMP180;11328;53.928;18.522;2022-10-16T00:38:57;100081.00;;;17.40
22322;BMP180;11328;53.928;18.522;2022-10-16T00:41:32;100091.00;;;17.40
22322;BMP180;11328;53.928;18.522;2022-10-16T00:44:03;100094.00;;;17.30
22322;BMP180;11328;53.928;18.522;2022-10-16T00:46:51;100099.00;;;17.30
22322;BMP180;11328;53.928;18.522;2022-10-16T00:49:20;100090.00;;;17.20
22322;BMP180;11328;53.928;18.522;2022-10-16T00:51:51;100082.00;;;17.30
22322;BMP180;11328;53.928;18.522;2022-10-16T00:54:32;100081.00;;;17.30
22322;BMP180;11328;53.928;18.522;2022-10-16T00:57:04;100086.00;;;17.40
22322;BMP180;11328;53.928;18.522;2022-10-16T00:59:40;100085.00;;;17.40
22322;BMP180;11328;53.928;18.522;2022-10-16T01:02:13;100088.00;;;17.20
22322;BMP180;11328;53.928;18.522;2022-10-16T01:04:47;100060.00;;;17.10
22322;BMP180;11328;53.928;18.522;2022-10-16T01:07:29;100077.00;;;17.20
22322;BMP180;11328;53.928;18.522;2022-10-16T01:13:11;100080.00;;;17.30
22322;BMP180;11328;53.928;18.522;2022-10-16T01:15:47;100082.00;;;17.20
22322;BMP180;11328;53.928;18.522;2022-10-16T01:18:23;100088.00;;;17.30
22322;BMP180;11328;53.928;18.522;2022-10-16T01:21:02;100081.00;;;17.20
22322;BMP180;11328;53.928;18.522;2022-10-16T01:27:07;100097.00;;;17.10
22322;BMP180;11328;53.928;18.522;2022-10-16T01:29:59;100105.00;;;17.10
22322;BMP180;11328;53.928;18.522;2022-10-16T01:33:04;100107.00;;;17.20
22322;BMP180;11328;53.928;18.522;2022-10-16T01:35:42;100101.00;;;17.10
22322;BMP180;11328;53.928;18.522;2022-10-16T01:38:35;100093.00;;;17.10
22322;BMP180;11328;53.928;18.522;2022-10-16T01:41:34;100103.00;;;17.10
22322;BMP180;11328;53.928;18.522;2022-10-16T01:44:19;100107.00;;;17.20
22322;BMP180;11328;53.928;18.522;2022-10-16T01:46:50;100104.00;;;17.20
22322;BMP180;11328;53.928;18.522;2022-10-16T01:49:23;100101.00;;;17.20
22322;BMP180;11328;53.928;18.522;2022-10-16T01:51:56;100104.00;;;17.20
22322;BMP180;11328;53.928;18.522;2022-10-16T01:54:30;100104.00;;;17.30
22322;BMP180;11328;53.928;18.522;2022-10-16T01:56:59;100112.00;;;17.30
22322;BMP180;11328;53.928;18.522;2022-10-16T01:59:30;100120.00;;;17.40
22322;BMP180;11328;53.928;18.522;2022-10-16T02:02:08;100102.00;;;17.30
22322;BMP180;11328;53.928;18.522;2022-10-16T02:07:42;100111.00;;;17.40
22322;BMP180;11328;53.928;18.522;2022-10-16T02:10:10;100096.00;;;17.40
22322;BMP180;11328;53.928;18.522;2022-10-16T02:12:41;100102.00;;;17.50
22322;BMP180;11328;53.928;18.522;2022-10-16T02:15:10;100103.00;;;17.50
22322;BMP180;11328;53.928;18.522;2022-10-16T02:17:37;100106.00;;;17.60
22322;BMP180;11328;53.928;18.522;2022-10-16T02:20:05;100110.00;;;17.50
22322;BMP180;11328;53.928;18.522;2022-10-16T02:22:40;100105.00;;;17.50
22322;BMP180;11328;53.928;18.522;2022-10-16T02:25:23;100099.00;;;17.50
22322;BMP180;11328;53.928;18.522;2022-10-16T02:30:30;100098.00;;;17.50
22322;BMP180;11328;53.928;18.522;2022-10-16T02:33:01;100091.00;;;17.60
22322;BMP180;11328;53.928;18.522;2022-10-16T02:35:31;100076.00;;;17.60
22322;BMP180;11328;53.928;18.522;2022-10-16T02:37:59;100083.00;;;17.70
22322;BMP180;11328;53.928;18.522;2022-10-16T02:40:27;100106.00;;;17.60
22322;BMP180;11328;53.928;18.522;2022-10-16T02:42:55;100102.00;;;17.40
22322;BMP180;11328;53.928;18.522;2022-10-16T02:45:23;100114.00;;;17.30
22322;BMP180;11328;53.928;18.522;2022-10-16T02:47:51;100104.00;;;17.30
22322;BMP180;11328;53.928;18.522;2022-10-16T02:50:18;100108.00;;;17.40
22322;BMP180;11328;53.928;18.522;2022-10-16T02:52:45;100109.00;;;17.40
22322;BMP180;11328;53.928;18.522;2022-10-16T02:55:12;100110.00;;;17.40
22322;BMP180;11328;53.928;18.522;2022-10-16T02:57:39;100111.00;;;17.40
22322;BMP180;11328;53.928;18.522;2022-10-16T03:00:11;100106.00;;;17.40
22322;BMP180;11328;53.928;18.522;2022-10-16T03:02:39;100100.00;;;17.50
22322;BMP180;11328;53.928;18.522;2022-10-16T03:05:07;100081.00;;;17.50
22322;BMP180;11328;53.928;18.522;2022-10-16T03:07:34;100085.00;;;17.50
22322;BMP180;11328;53.928;18.522;2022-10-16T03:10:01;100085.00;;;17.50
22322;BMP180;11328;53.928;18.522;2022-10-16T03:12:29;100082.00;;;17.50
22322;BMP180;11328;53.928;18.522;2022-10-16T03:14:56;100069.00;;;17.40
22322;BMP180;11328;53.928;18.522;2022-10-16T03:17:24;100064.00;;;17.40
22322;BMP180;11328;53.928;18.522;2022-10-16T03:19:51;100073.00;;;17.40
22322;BMP180;11328;53.928;18.522;2022-10-16T03:22:19;100055.00;;;17.40
22322;BMP180;11328;53.928;18.522;2022-10-16T03:24:46;100073.00;;;17.40
22322;BMP180;11328;53.928;18.522;2022-10-16T03:27:13;100066.00;;;17.40
22322;BMP180;11328;53.928;18.522;2022-10-16T03:29:40;100062.00;;;17.30
22322;BMP180;11328;53.928;18.522;2022-10-16T03:32:06;100070.00;;;17.30
22322;BMP180;11328;53.928;18.522;2022-10-16T03:34:34;100077.00;;;17.30
22322;BMP180;11328;53.928;18.522;2022-10-16T03:37:00;100082.00;;;17.20
22322;BMP180;11328;53.928;18.522;2022-10-16T03:39:27;100081.00;;;17.20
22322;BMP180;11328;53.928;18.522;2022-10-16T03:41:54;100078.00;;;17.30
22322;BMP180;11328;53.928;18.522;2022-10-16T03:44:21;100070.00;;;17.20
22322;BMP180;11328;53.928;18.522;2022-10-16T03:46:48;100067.00;;;17.20
22322;BMP180;11328;53.928;18.522;2022-10-16T03:49:15;100086.00;;;17.10
22322;BMP180;11328;53.928;18.522;2022-10-16T03:51:42;100096.00;;;17.10
22322;BMP180;11328;53.928;18.522;2022-10-16T03:54:10;100100.00;;;16.90
22322;BMP180;11328;53.928;18.522;2022-10-16T03:56:38;100103.00;;;16.80
22322;BMP180;11328;53.928;18.522;2022-10-16T03:59:05;100111.00;;;16.80
22322;BMP180;11328;53.928;18.522;2022-10-16T04:01:32;100109.00;;;16.80
22322;BMP180;11328;53.928;18.522;2022-10-16T04:17:03;100100.00;;;17.50
22322;BMP180;11328;53.928;18.522;2022-10-16T04:19:30;100110.00;;;17.40
22322;BMP180;11328;53.928;18.522;2022-10-16T04:21:57;100112.00;;;17.30
22322;BMP180;11328;53.928;18.522;2022-10-16T04:24:24;100109.00;;;17.30
22322;BMP180;11328;53.928;18.522;2022-10-16T04:26:51;100110.00;;;17.10
22322;BMP180;11328;53.928;18.522;2022-10-16T04:29:18;100112.00;;;17.00
22322;BMP180;11328;53.928;18.522;2022-10-16T04:31:46;100110.00;;;17.00
22322;BMP180;11328;53.928;18.522;2022-10-16T04:34:13;100118.00;;;16.90
22322;BMP180;11328;53.928;18.522;2022-10-16T04:36:40;100125.00;;;16.90
22322;BMP180;11328;53.928;18.522;2022-10-16T04:39:07;100127.00;;;16.90
22322;BMP180;11328;53.928;18.522;2022-10-16T04:41:34;100119.00;;;16.80
22322;BMP180;11328;53.928;18.522;2022-10-16T04:44:01;100117.00;;;16.40
22322;BMP180;11328;53.928;18.522;2022-10-16T04:46:28;100111.00;;;16.90
22322;BMP180;11328;53.928;18.522;2022-10-16T04:48:55;100116.00;;;16.80
22322;BMP180;11328;53.928;18.522;2022-10-16T04:51:22;100116.00;;;16.80
22322;BMP180;11328;53.928;18.522;2022-10-16T04:53:49;100118.00;;;16.80
22322;BMP180;11328;53.928;18.522;2022-10-16T04:56:16;100123.00;;;16.70
22322;BMP180;11328;53.928;18.522;2022-10-16T04:58:43;100124.00;;;16.70
22322;BMP180;11328;53.928;18.522;2022-10-16T05:01:10;100125.00;;;16.60
22322;BMP180;11328;53.928;18.522;2022-10-16T05:03:37;100117.00;;;16.70
22322;BMP180;11328;53.928;18.522;2022-10-16T05:06:08;100119.00;;;16.70
22322;BMP180;11328;53.928;18.522;2022-10-16T05:08:35;100118.00;;;16.70
22322;BMP180;11328;53.928;18.522;2022-10-16T05:11:01;100119.00;;;16.70
22322;BMP180;11328;53.928;18.522;2022-10-16T05:13:28;100120.00;;;16.60
22322;BMP180;11328;53.928;18.522;2022-10-16T05:15:55;100128.00;;;16.50
22322;BMP180;11328;53.928;18.522;2022-10-16T05:18:23;100124.00;;;16.60
22322;BMP180;11328;53.928;18.522;2022-10-16T05:20:50;100132.00;;;16.60
22322;BMP180;11328;53.928;18.522;2022-10-16T05:23:17;100127.00;;;16.50
22322;BMP180;11328;53.928;18.522;2022-10-16T05:25:53;100129.00;;;16.50
22322;BMP180;11328;53.928;18.522;2022-10-16T05:28:21;100137.00;;;16.60
22322;BMP180;11328;53.928;18.522;2022-10-16T05:30:48;100136.00;;;16.50
22322;BMP180;11328;53.928;18.522;2022-10-16T05:33:15;100151.00;;;16.50
22322;BMP180;11328;53.928;18.522;2022-10-16T05:35:42;100147.00;;;16.50
22322;BMP180;11328;53.928;18.522;2022-10-16T05:38:09;100150.00;;;16.60
22322;BMP180;11328;53.928;18.522;2022-10-16T05:40:36;100153.00;;;16.60
22322;BMP180;11328;53.928;18.522;2022-10-16T05:43:03;100149.00;;;16.50
22322;BMP180;11328;53.928;18.522;2022-10-16T05:45:30;100140.00;;;16.40
22322;BMP180;11328;53.928;18.522;2022-10-16T05:47:57;100136.00;;;16.40
22322;BMP180;11328;53.928;18.522;2022-10-16T05:50:24;100147.00;;;16.50
22322;BMP180;11328;53.928;18.522;2022-10-16T05:52:51;100139.00;;;16.50
22322;BMP180;11328;53.928;18.522;2022-10-16T05:55:18;100150.00;;;16.50
22322;BMP180;11328;53.928;18.522;2022-10-16T05:57:45;100147.00;;;16.50
22322;BMP180;11328;53.928;18.522;2022-10-16T06:00:12;100151.00;;;16.50
22322;BMP180;11328;53.928;18.522;2022-10-16T06:02:39;100161.00;;;16.60
22322;BMP180;11328;53.928;18.522;2022-10-16T06:05:06;100160.00;;;16.60
22322;BMP180;11328;53.928;18.522;2022-10-16T06:07:36;100162.00;;;16.50
22322;BMP180;11328;53.928;18.522;2022-10-16T06:10:04;100164.00;;;16.60
22322;BMP180;11328;53.928;18.522;2022-10-16T06:12:31;100167.00;;;16.50
22322;BMP180;11328;53.928;18.522;2022-10-16T06:14:58;100175.00;;;16.60
22322;BMP180;11328;53.928;18.522;2022-10-16T06:17:25;100177.00;;;16.70
22322;BMP180;11328;53.928;18.522;2022-10-16T06:19:52;100191.00;;;16.70
22322;BMP180;11328;53.928;18.522;2022-10-16T06:22:19;100178.00;;;16.70
22322;BMP180;11328;53.928;18.522;2022-10-16T06:24:46;100187.00;;;16.70
22322;BMP180;11328;53.928;18.522;2022-10-16T06:27:14;100181.00;;;16.70
22322;BMP180;11328;53.928;18.522;2022-10-16T06:29:41;100188.00;;;16.70
22322;BMP180;11328;53.928;18.522;2022-10-16T06:32:09;100188.00;;;16.60
22322;BMP180;11328;53.928;18.522;2022-10-16T06:34:36;100190.00;;;16.60
22322;BMP180;11328;53.928;18.522;2022-10-16T06:37:08;100186.00;;;16.60
22322;BMP180;11328;53.928;18.522;2022-10-16T06:39:35;100196.00;;;16.60
22322;BMP180;11328;53.928;18.522;2022-10-16T06:42:02;100188.00;;;16.60
22322;BMP180;11328;53.928;18.522;2022-10-16T06:44:29;100208.00;;;16.60
22322;BMP180;11328;53.928;18.522;2022-10-16T06:46:56;100203.00;;;16.70
22322;BMP180;11328;53.928;18.522;2022-10-16T06:49:23;100199.00;;;16.70
22322;BMP180;11328;53.928;18.522;2022-10-16T06:51:50;100193.00;;;16.80
22322;BMP180;11328;53.928;18.522;2022-10-16T06:54:20;100188.00;;;16.80
22322;BMP180;11328;53.928;18.522;2022-10-16T06:56:47;100190.00;;;16.80
22322;BMP180;11328;53.928;18.522;2022-10-16T06:59:13;100196.00;;;16.80
22322;BMP180;11328;53.928;18.522;2022-10-16T07:01:40;100188.00;;;16.90
22322;BMP180;11328;53.928;18.522;2022-10-16T07:04:07;100197.00;;;16.90
22322;BMP180;11328;53.928;18.522;2022-10-16T07:06:34;100199.00;;;17.00
22322;BMP180;11328;53.928;18.522;2022-10-16T07:09:06;100216.00;;;17.10
22322;BMP180;11328;53.928;18.522;2022-10-16T07:11:34;100223.00;;;17.10
22322;BMP180;11328;53.928;18.522;2022-10-16T07:14:01;100214.00;;;17.20
22322;BMP180;11328;53.928;18.522;2022-10-16T07:16:31;100213.00;;;17.10
22322;BMP180;11328;53.928;18.522;2022-10-16T07:19:02;100213.00;;;17.10
22322;BMP180;11328;53.928;18.522;2022-10-16T07:21:33;100219.00;;;17.10
22322;BMP180;11328;53.928;18.522;2022-10-16T07:24:06;100220.00;;;17.00
22322;BMP180;11328;53.928;18.522;2022-10-16T07:26:36;100225.00;;;17.00
22322;BMP180;11328;53.928;18.522;2022-10-16T07:29:03;100222.00;;;17.00
22322;BMP180;11328;53.928;18.522;2022-10-16T07:31:31;100231.00;;;17.00
22322;BMP180;11328;53.928;18.522;2022-10-16T07:34:00;100231.00;;;17.10
22322;BMP180;11328;53.928;18.522;2022-10-16T07:36:27;100237.00;;;17.10
22322;BMP180;11328;53.928;18.522;2022-10-16T07:38:57;100237.00;;;17.10
22322;BMP180;11328;53.928;18.522;2022-10-16T07:41:27;100244.00;;;17.20
22322;BMP180;11328;53.928;18.522;2022-10-16T07:43:58;100245.00;;;17.10
22322;BMP180;11328;53.928;18.522;2022-10-16T07:46:27;100254.00;;;17.00
22322;BMP180;11328;53.928;18.522;2022-10-16T07:48:55;100244.00;;;17.00
22322;BMP180;11328;53.928;18.522;2022-10-16T07:51:24;100253.00;;;17.20
22322;BMP180;11328;53.928;18.522;2022-10-16T07:53:52;100262.00;;;17.20
22322;BMP180;11328;53.928;18.522;2022-10-16T07:56:20;100273.00;;;17.30
22322;BMP180;11328;53.928;18.522;2022-10-16T07:58:48;100270.00;;;17.30
22322;BMP180;11328;53.928;18.522;2022-10-16T08:01:18;100270.00;;;17.30
22322;BMP180;11328;53.928;18.522;2022-10-16T08:03:49;100264.00;;;17.30
22322;BMP180;11328;53.928;18.522;2022-10-16T08:18:35;100262.00;;;18.10
22322;BMP180;11328;53.928;18.522;2022-10-16T08:21:04;100279.00;;;17.90
22322;BMP180;11328;53.928;18.522;2022-10-16T08:23:32;100288.00;;;17.90
22322;BMP180;11328;53.928;18.522;2022-10-16T08:26:07;100298.00;;;17.80
22322;BMP180;11328;53.928;18.522;2022-10-16T08:28:36;100301.00;;;17.60
22322;BMP180;11328;53.928;18.522;2022-10-16T08:31:13;100308.00;;;17.60
22322;BMP180;11328;53.928;18.522;2022-10-16T08:33:46;100314.00;;;17.70
22322;BMP180;11328;53.928;18.522;2022-10-16T08:36:15;100312.00;;;17.70
22322;BMP180;11328;53.928;18.522;2022-10-16T08:38:42;100300.00;;;17.60
22322;BMP180;11328;53.928;18.522;2022-10-16T08:44:37;100307.00;;;17.80
22322;BMP180;11328;53.928;18.522;2022-10-16T08:50:24;100301.00;;;17.70
22322;BMP180;11328;53.928;18.522;2022-10-16T08:52:52;100311.00;;;17.80
22322;BMP180;11328;53.928;18.522;2022-10-16T08:55:41;100320.00;;;17.90
22322;BMP180;11328;53.928;18.522;2022-10-16T08:58:22;100316.00;;;17.90
22322;BMP180;11328;53.928;18.522;2022-10-16T09:01:11;100301.00;;;18.00
22322;BMP180;11328;53.928;18.522;2022-10-16T09:04:39;100309.00;;;18.10
22322;BMP180;11328;53.928;18.522;2022-10-16T09:13:21;100304.00;;;18.00
22322;BMP180;11328;53.928;18.522;2022-10-16T09:19:12;100309.00;;;18.20
22322;BMP180;11328;53.928;18.522;2022-10-16T09:21:44;100319.00;;;18.20
22322;BMP180;11328;53.928;18.522;2022-10-16T09:24:23;100319.00;;;18.10
22322;BMP180;11328;53.928;18.522;2022-10-16T09:26:58;100314.00;;;18.10
22322;BMP180;11328;53.928;18.522;2022-10-16T09:29:27;100319.00;;;18.20
22322;BMP180;11328;53.928;18.522;2022-10-16T09:32:10;100309.00;;;18.20
22322;BMP180;11328;53.928;18.522;2022-10-16T09:34:54;100312.00;;;18.30
22322;BMP180;11328;53.928;18.522;2022-10-16T09:37:36;100319.00;;;18.50
22322;BMP180;11328;53.928;18.522;2022-10-16T09:40:04;100330.00;;;18.50
22322;BMP180;11328;53.928;18.522;2022-10-16T09:42:36;100325.00;;;18.50
22322;BMP180;11328;53.928;18.522;2022-10-16T09:45:05;100324.00;;;18.50
22322;BMP180;11328;53.928;18.522;2022-10-16T09:47:44;100324.00;;;18.60
22322;BMP180;11328;53.928;18.522;2022-10-16T09:50:27;100345.00;;;18.80
22322;BMP180;11328;53.928;18.522;2022-10-16T09:53:14;100335.00;;;18.80
22322;BMP180;11328;53.928;18.522;2022-10-16T09:55:53;100335.00;;;18.80
22322;BMP180;11328;53.928;18.522;2022-10-16T09:58:23;100338.00;;;18.90
22322;BMP180;11328;53.928;18.522;2022-10-16T10:00:53;100345.00;;;19.00
22322;BMP180;11328;53.928;18.522;2022-10-16T10:03:50;100334.00;;;19.00
22322;BMP180;11328;53.928;18.522;2022-10-16T10:06:28;100333.00;;;19.00
22322;BMP180;11328;53.928;18.522;2022-10-16T10:09:02;100323.00;;;19.10
22322;BMP180;11328;53.928;18.522;2022-10-16T10:11:51;100337.00;;;19.30
22322;BMP180;11328;53.928;18.522;2022-10-16T10:14:25;100348.00;;;19.40
22322;BMP180;11328;53.928;18.522;2022-10-16T10:17:10;100352.00;;;19.20
22322;BMP180;11328;53.928;18.522;2022-10-16T10:22:52;100358.00;;;19.30
22322;BMP180;11328;53.928;18.522;2022-10-16T10:25:49;100353.00;;;19.40
22322;BMP180;11328;53.928;18.522;2022-10-16T10:31:23;100351.00;;;19.40
22322;BMP180;11328;53.928;18.522;2022-10-16T10:40:08;100355.00;;;19.30
22322;BMP180;11328;53.928;18.522;2022-10-16T10:42:59;100359.00;;;19.40
22322;BMP180;11328;53.928;18.522;2022-10-16T10:45:45;100348.00;;;19.40
22322;BMP180;11328;53.928;18.522;2022-10-16T10:50:57;100357.00;;;19.40
22322;BMP180;11328;53.928;18.522;2022-10-16T10:54:00;100377.00;;;19.40
22322;BMP180;11328;53.928;18.522;2022-10-16T10:56:56;100379.00;;;19.30
22322;BMP180;11328;53.928;18.522;2022-10-16T11:02:42;100381.00;;;19.00
22322;BMP180;11328;53.928;18.522;2022-10-16T11:08:42;100384.00;;;19.00
22322;BMP180;11328;53.928;18.522;2022-10-16T11:11:20;100386.00;;;19.10
22322;BMP180;11328;53.928;18.522;2022-10-16T11:16:39;100389.00;;;19.10
22322;BMP180;11328;53.928;18.522;2022-10-16T11:30:29;100361.00;;;19.60
22322;BMP180;11328;53.928;18.522;2022-10-16T11:36:00;100370.00;;;19.40
22322;BMP180;11328;53.928;18.522;2022-10-16T11:39:16;100370.00;;;19.60
22322;BMP180;11328;53.928;18.522;2022-10-16T11:42:10;100373.00;;;19.60
22322;BMP180;11328;53.928;18.522;2022-10-16T11:44:55;100383.00;;;19.60
22322;BMP180;11328;53.928;18.522;2022-10-16T11:47:41;100383.00;;;19.60
22322;BMP180;11328;53.928;18.522;2022-10-16T11:50:43;100382.00;;;19.70
22322;BMP180;11328;53.928;18.522;2022-10-16T11:55:56;100378.00;;;19.60
22322;BMP180;11328;53.928;18.522;2022-10-16T11:58:52;100381.00;;;19.40
22322;BMP180;11328;53.928;18.522;2022-10-16T12:07:09;100381.00;;;19.70
22322;BMP180;11328;53.928;18.522;2022-10-16T12:09:40;100384.00;;;19.90
22322;BMP180;11328;53.928;18.522;2022-10-16T12:17:56;100376.00;;;19.90
22322;BMP180;11328;53.928;18.522;2022-10-16T12:20:31;100379.00;;;19.70
22322;BMP180;11328;53.928;18.522;2022-10-16T12:23:04;100372.00;;;19.80
22322;BMP180;11328;53.928;18.522;2022-10-16T12:25:33;100375.00;;;19.50
22322;BMP180;11328;53.928;18.522;2022-10-16T12:28:25;100395.00;;;19.70
22322;BMP180;11328;53.928;18.522;2022-10-16T12:30:58;100384.00;;;19.60
22322;BMP180;11328;53.928;18.522;2022-10-16T12:33:30;100395.00;;;19.60
22322;BMP180;11328;53.928;18.522;2022-10-16T12:36:00;100388.00;;;19.70
22322;BMP180;11328;53.928;18.522;2022-10-16T12:38:44;100402.00;;;19.80
22322;BMP180;11328;53.928;18.522;2022-10-16T12:41:12;100406.00;;;19.90
22322;BMP180;11328;53.928;18.522;2022-10-16T12:43:46;100400.00;;;20.00
22322;BMP180;11328;53.928;18.522;2022-10-16T12:48:44;100408.00;;;20.10
22322;BMP180;11328;53.928;18.522;2022-10-16T12:54:01;100407.00;;;20.00
22322;BMP180;11328;53.928;18.522;2022-10-16T13:06:17;100408.00;;;20.20
22322;BMP180;11328;53.928;18.522;2022-10-16T13:23:13;100458.00;;;20.40
22322;BMP180;11328;53.928;18.522;2022-10-16T13:26:06;100448.00;;;20.30
22322;BMP180;11328;53.928;18.522;2022-10-16T13:28:38;100451.00;;;20.30
22322;BMP180;11328;53.928;18.522;2022-10-16T13:31:21;100392.00;;;20.20
22322;BMP180;11328;53.928;18.522;2022-10-16T13:33:54;100444.00;;;20.30
22322;BMP180;11328;53.928;18.522;2022-10-16T13:36:35;100439.00;;;20.20
22322;BMP180;11328;53.928;18.522;2022-10-16T13:39:21;100439.00;;;20.40
22322;BMP180;11328;53.928;18.522;2022-10-16T13:42:26;100452.00;;;20.30
22322;BMP180;11328;53.928;18.522;2022-10-16T13:44:56;100438.00;;;20.20
22322;BMP180;11328;53.928;18.522;2022-10-16T13:47:29;100443.00;;;20.30
22322;BMP180;11328;53.928;18.522;2022-10-16T13:50:17;100447.00;;;20.50
22322;BMP180;11328;53.928;18.522;2022-10-16T13:52:44;100458.00;;;20.60
22322;BMP180;11328;53.928;18.522;2022-10-16T13:55:13;100463.00;;;20.60
22322;BMP180;11328;53.928;18.522;2022-10-16T13:57:41;100453.00;;;20.60
22322;BMP180;11328;53.928;18.522;2022-10-16T14:00:27;100458.00;;;20.60
22322;BMP180;11328;53.928;18.522;2022-10-16T14:03:13;100453.00;;;20.50
22322;BMP180;11328;53.928;18.522;2022-10-16T14:05:52;100454.00;;;20.40
22322;BMP180;11328;53.928;18.522;2022-10-16T14:08:21;100461.00;;;20.50
22322;BMP180;11328;53.928;18.522;2022-10-16T14:10:55;100466.00;;;20.40
22322;BMP180;11328;53.928;18.522;2022-10-16T14:13:39;100471.00;;;20.20
22322;BMP180;11328;53.928;18.522;2022-10-16T14:16:18;100479.00;;;20.20
22322;BMP180;11328;53.928;18.522;2022-10-16T14:18:59;100476.00;;;20.10
22322;BMP180;11328;53.928;18.522;2022-10-16T14:21:27;100484.00;;;20.10
22322;BMP180;11328;53.928;18.522;2022-10-16T14:23:55;100479.00;;;20.20
22322;BMP180;11328;53.928;18.522;2022-10-16T14:26:27;100485.00;;;20.20
22322;BMP180;11328;53.928;18.522;2022-10-16T14:29:17;100491.00;;;20.20
22322;BMP180;11328;53.928;18.522;2022-10-16T14:32:23;100485.00;;;20.30
22322;BMP180;11328;53.928;18.522;2022-10-16T14:34:54;100468.00;;;20.20
22322;BMP180;11328;53.928;18.522;2022-10-16T14:37:27;100496.00;;;20.20
22322;BMP180;11328;53.928;18.522;2022-10-16T14:39:56;100503.00;;;20.20
22322;BMP180;11328;53.928;18.522;2022-10-16T14:42:25;100499.00;;;20.20
22322;BMP180;11328;53.928;18.522;2022-10-16T14:44:54;100508.00;;;20.20
22322;BMP180;11328;53.928;18.522;2022-10-16T14:47:25;100489.00;;;20.20
22322;BMP180;11328;53.928;18.522;2022-10-16T14:49:54;100507.00;;;20.20
22322;BMP180;11328;53.928;18.522;2022-10-16T14:52:24;100504.00;;;20.20
22322;BMP180;11328;53.928;18.522;2022-10-16T14:54:51;100505.00;;;20.20
22322;BMP180;11328;53.928;18.522;2022-10-16T14:57:26;100507.00;;;20.10
22322;BMP180;11328;53.928;18.522;2022-10-16T14:59:55;100517.00;;;20.10
22322;BMP180;11328;53.928;18.522;2022-10-16T15:02:30;100510.00;;;20.00
22322;BMP180;11328;53.928;18.522;2022-10-16T15:05:23;100520.00;;;20.00
22322;BMP180;11328;53.928;18.522;2022-10-16T15:07:54;100519.00;;;20.10
22322;BMP180;11328;53.928;18.522;2022-10-16T15:10:24;100521.00;;;19.90
22322;BMP180;11328;53.928;18.522;2022-10-16T15:12:52;100527.00;;;20.00
22322;BMP180;11328;53.928;18.522;2022-10-16T15:18:04;100530.00;;;19.90
22322;BMP180;11328;53.928;18.522;2022-10-16T15:20:35;100528.00;;;19.90
22322;BMP180;11328;53.928;18.522;2022-10-16T15:23:14;100532.00;;;19.90
22322;BMP180;11328;53.928;18.522;2022-10-16T15:28:13;100530.00;;;19.90
22322;BMP180;11328;53.928;18.522;2022-10-16T15:30:41;100541.00;;;19.80
22322;BMP180;11328;53.928;18.522;2022-10-16T15:33:20;100529.00;;;19.70
22322;BMP180;11328;53.928;18.522;2022-10-16T15:35:49;100531.00;;;19.70
22322;BMP180;11328;53.928;18.522;2022-10-16T15:38:19;100535.00;;;19.70
22322;BMP180;11328;53.928;18.522;2022-10-16T15:40:48;100518.00;;;19.60
22322;BMP180;11328;53.928;18.522;2022-10-16T15:43:15;100546.00;;;19.60
22322;BMP180;11328;53.928;18.522;2022-10-16T15:45:42;100536.00;;;19.50
22322;BMP180;11328;53.928;18.522;2022-10-16T15:48:13;100537.00;;;19.60
22322;BMP180;11328;53.928;18.522;2022-10-16T15:50:40;100536.00;;;19.70
22322;BMP180;11328;53.928;18.522;2022-10-16T15:53:13;100539.00;;;19.60
22322;BMP180;11328;53.928;18.522;2022-10-16T15:55:40;100541.00;;;19.60
22322;BMP180;11328;53.928;18.522;2022-10-16T15:58:07;100549.00;;;19.60
22322;BMP180;11328;53.928;18.522;2022-10-16T16:00:34;100552.00;;;19.60
22322;BMP180;11328;53.928;18.522;2022-10-16T16:03:01;100564.00;;;19.60
22322;BMP180;11328;53.928;18.522;2022-10-16T16:05:28;100566.00;;;19.60
22322;BMP180;11328;53.928;18.522;2022-10-16T16:07:56;100577.00;;;19.50
22322;BMP180;11328;53.928;18.522;2022-10-16T16:10:23;100575.00;;;19.50
22322;BMP180;11328;53.928;18.522;2022-10-16T16:12:50;100591.00;;;19.40
22322;BMP180;11328;53.928;18.522;2022-10-16T16:15:21;100587.00;;;19.40
22322;BMP180;11328;53.928;18.522;2022-10-16T16:17:49;100592.00;;;19.20
22322;BMP180;11328;53.928;18.522;2022-10-16T16:20:16;100596.00;;;19.30
22322;BMP180;11328;53.928;18.522;2022-10-16T16:22:43;100591.00;;;19.20
22322;BMP180;11328;53.928;18.522;2022-10-16T16:25:10;100599.00;;;19.20
22322;BMP180;11328;53.928;18.522;2022-10-16T16:27:37;100599.00;;;19.10
22322;BMP180;11328;53.928;18.522;2022-10-16T16:30:06;100597.00;;;19.00
22322;BMP180;11328;53.928;18.522;2022-10-16T16:32:35;100601.00;;;19.10
22322;BMP180;11328;53.928;18.522;2022-10-16T16:35:03;100607.00;;;19.10